Time;durP1;ratioP1;P1;durP2;ratioP2;P2;SDS_P1;SDS_P2;PMS_P1;PMS_P2;Temp;Humidity;BMP_temperature;BMP_pressure;BME280_temperature;BME280_humidity;BME280_pressure;Samples;Min_cycle;Max_cycle;Signal;HPM_P1;HPM_P2
2022/12/28 00:00:22;;;;;;;6.82;3.80;;;23.40;41.00;;;;;;6106473;28;81660;-67
2022/12/28 00:03:22;;;;;;;5.78;3.58;;;23.40;40.70;;;;;;6106677;28;81738;-66
2022/12/28 00:06:23;;;;;;;6.88;3.70;;;23.40;41.30;;;;;;6119644;28;80509;-65
2022/12/28 00:09:23;;;;;;;5.15;3.35;;;23.40;41.30;;;;;;6107060;28;81286;-65
2022/12/28 00:12:24;;;;;;;5.80;3.17;;;23.40;41.70;;;;;;6107761;28;81316;-64
2022/12/28 00:15:24;;;;;;;6.30;3.05;;;23.40;41.40;;;;;;6106994;28;80432;-66
2022/12/28 00:18:25;;;;;;;7.60;3.30;;;23.30;41.70;;;;;;6093539;28;82159;-66
2022/12/28 00:21:26;;;;;;;6.05;2.95;;;23.30;41.60;;;;;;6106184;28;80910;-66
2022/12/28 00:24:26;;;;;;;5.07;3.15;;;23.30;41.90;;;;;;6106718;28;81390;-69
2022/12/28 00:27:27;;;;;;;6.07;2.95;;;23.30;42.10;;;;;;6106187;28;80345;-67
2022/12/28 00:30:27;;;;;;;4.88;3.15;;;23.30;42.30;;;;;;6123602;28;82176;-64
2022/12/28 00:33:28;;;;;;;5.75;3.00;;;23.30;42.30;;;;;;6101889;28;80480;-62
2022/12/28 00:36:28;;;;;;;4.80;2.60;;;23.30;42.40;;;;;;6083864;28;80409;-65
2022/12/28 00:39:29;;;;;;;5.35;2.90;;;23.30;42.30;;;;;;6097837;28;80249;-66
2022/12/28 00:42:29;;;;;;;3.65;2.63;;;23.30;42.10;;;;;;6098347;28;80418;-66
2022/12/28 00:45:30;;;;;;;4.60;2.72;;;23.30;42.10;;;;;;6092620;28;81361;-63
2022/12/28 00:48:31;;;;;;;5.22;3.40;;;23.30;41.80;;;;;;6108406;28;80359;-64
2022/12/28 00:51:31;;;;;;;5.95;3.25;;;23.30;41.30;;;;;;6115639;28;81866;-62
2022/12/28 00:54:32;;;;;;;5.75;3.17;;;23.30;41.10;;;;;;6096014;28;80855;-62
2022/12/28 00:57:32;;;;;;;5.63;3.10;;;23.20;41.40;;;;;;6115291;28;82481;-62
2022/12/28 01:00:33;;;;;;;6.10;3.42;;;23.30;41.80;;;;;;6113206;28;83403;-61
2022/12/28 01:03:33;;;;;;;4.90;3.28;;;23.30;41.60;;;;;;6121291;28;83935;-63
2022/12/28 01:06:34;;;;;;;6.80;4.25;;;23.20;41.80;;;;;;6104843;28;83741;-63
2022/12/28 01:09:34;;;;;;;5.80;3.55;;;23.20;41.10;;;;;;6104480;28;82492;-61
2022/12/28 01:12:35;;;;;;;5.80;3.35;;;23.20;41.20;;;;;;6106037;28;80360;-62
2022/12/28 01:15:35;;;;;;;5.97;3.60;;;23.20;40.60;;;;;;6105008;28;80402;-63
2022/12/28 01:18:38;;;;;;;6.47;3.40;;;23.30;40.50;;;;;;6094384;28;81301;-61
2022/12/28 01:21:38;;;;;;;3.95;3.03;;;23.20;40.40;;;;;;6105653;28;83603;-62
2022/12/28 01:24:39;;;;;;;5.15;3.55;;;23.20;41.20;;;;;;6093073;28;80896;-63
2022/12/28 01:27:39;;;;;;;4.93;3.25;;;23.20;41.50;;;;;;6096861;28;82039;-63
2022/12/28 01:30:40;;;;;;;6.63;3.78;;;23.20;41.50;;;;;;6100560;28;82204;-63
2022/12/28 01:33:40;;;;;;;5.18;3.45;;;23.20;40.90;;;;;;6096616;28;81863;-64
2022/12/28 01:36:41;;;;;;;4.03;2.90;;;23.20;41.30;;;;;;6105868;28;81417;-64
2022/12/28 01:39:41;;;;;;;6.93;3.40;;;23.20;41.00;;;;;;6103478;28;81305;-64
2022/12/28 01:42:42;;;;;;;4.65;3.38;;;23.20;41.30;;;;;;6105778;28;80554;-63
2022/12/28 01:45:43;;;;;;;5.68;3.03;;;23.20;41.10;;;;;;6105668;28;81087;-63
2022/12/28 01:48:43;;;;;;;6.90;3.63;;;23.20;41.30;;;;;;6105789;28;81775;-63
2022/12/28 01:51:44;;;;;;;6.43;3.40;;;23.20;41.10;;;;;;6105728;28;81231;-64
2022/12/28 01:54:44;;;;;;;5.10;3.03;;;23.20;40.90;;;;;;6103979;28;82116;-64
2022/12/28 01:57:45;;;;;;;6.40;3.30;;;23.20;41.50;;;;;;6105962;28;81255;-63
2022/12/28 02:00:45;;;;;;;7.13;3.25;;;23.10;41.50;;;;;;6102977;28;83764;-63
2022/12/28 02:03:46;;;;;;;6.00;3.42;;;23.10;41.60;;;;;;6105551;28;83197;-63
2022/12/28 02:06:46;;;;;;;6.10;3.58;;;23.10;41.80;;;;;;6109665;28;83592;-62
2022/12/28 02:09:47;;;;;;;5.80;3.33;;;23.10;41.90;;;;;;6110772;28;80453;-63
2022/12/28 02:12:47;;;;;;;6.45;3.72;;;23.10;41.60;;;;;;6090600;28;82662;-63
2022/12/28 02:15:48;;;;;;;5.68;3.30;;;23.10;41.70;;;;;;6082236;28;80754;-65
2022/12/28 02:18:48;;;;;;;6.18;3.25;;;23.10;41.30;;;;;;6082435;28;80565;-67
2022/12/28 02:21:49;;;;;;;4.15;3.08;;;23.10;41.30;;;;;;6100103;28;80285;-67
2022/12/28 02:24:49;;;;;;;4.97;3.08;;;23.10;41.50;;;;;;6115394;28;83668;-65
2022/12/28 02:27:50;;;;;;;5.72;3.75;;;23.10;41.40;;;;;;6117073;28;81858;-66
2022/12/28 02:30:50;;;;;;;5.80;3.17;;;23.00;41.30;;;;;;6084078;28;81611;-66
2022/12/28 02:33:51;;;;;;;6.55;3.40;;;23.00;41.20;;;;;;6095821;28;82163;-69
2022/12/28 02:36:52;;;;;;;5.05;3.25;;;23.10;41.10;;;;;;6094206;28;80499;-70
2022/12/28 02:39:52;;;;;;;7.25;3.38;;;23.10;41.20;;;;;;6110355;28;80578;-72
2022/12/28 02:42:53;;;;;;;5.47;3.20;;;23.10;41.20;;;;;;6102604;28;81797;-69
2022/12/28 02:52:40;;;;;;;5.63;3.15;;;23.00;41.60;;;;;;6082771;28;81505;-64
2022/12/28 02:59:00;;;;;;;5.93;3.17;;;23.00;41.20;;;;;;6074399;28;81789;-65
2022/12/28 03:02:02;;;;;;;5.40;3.63;;;23.00;40.70;;;;;;6119792;28;81723;-66
2022/12/28 03:05:02;;;;;;;5.00;3.47;;;23.00;40.70;;;;;;6093822;28;80963;-66
2022/12/28 03:08:21;;;;;;;4.70;3.15;;;23.00;40.40;;;;;;6084766;28;81332;-66
2022/12/28 03:11:23;;;;;;;4.40;2.75;;;23.00;40.50;;;;;;6082141;28;82432;-67
2022/12/28 03:14:24;;;;;;;5.93;3.20;;;23.00;40.30;;;;;;6067564;28;80595;-68
2022/12/28 03:34:07;;;;;;;3.97;2.72;;;23.00;40.20;;;;;;6119730;28;82935;-66
2022/12/28 03:37:19;;;;;;;4.65;2.55;;;23.00;40.40;;;;;;6098761;28;83673;-67
2022/12/28 03:40:20;;;;;;;3.75;2.58;;;23.00;39.90;;;;;;6088669;28;82941;-69
2022/12/28 03:43:39;;;;;;;4.40;2.47;;;23.00;40.00;;;;;;6089997;28;80310;-67
2022/12/28 03:46:39;;;;;;;4.70;2.55;;;23.00;39.80;;;;;;6104147;28;83564;-70
2022/12/28 03:49:40;;;;;;;5.07;2.35;;;23.00;39.60;;;;;;6086135;28;84623;-66
2022/12/28 03:52:40;;;;;;;2.95;2.10;;;23.00;39.20;;;;;;6069659;28;84385;-64
2022/12/28 03:55:42;;;;;;;3.75;2.17;;;23.00;39.80;;;;;;6081635;28;83825;-64
2022/12/28 03:58:43;;;;;;;5.03;2.63;;;23.00;39.60;;;;;;6060265;28;83460;-64
2022/12/28 04:01:43;;;;;;;4.75;2.45;;;22.90;40.00;;;;;;6093824;28;83001;-68
2022/12/28 04:04:44;;;;;;;3.35;2.20;;;22.90;39.70;;;;;;6100892;28;83457;-65
2022/12/28 04:07:44;;;;;;;4.60;2.13;;;23.00;40.00;;;;;;6098205;28;81883;-65
2022/12/28 04:10:45;;;;;;;2.92;1.83;;;23.00;40.70;;;;;;6079677;28;82588;-66
2022/12/28 04:13:46;;;;;;;4.45;2.20;;;23.10;41.10;;;;;;6101866;28;84050;-66
2022/12/28 04:16:49;;;;;;;3.15;1.83;;;23.00;40.90;;;;;;6093069;28;81921;-66
2022/12/28 04:19:51;;;;;;;3.15;1.73;;;23.10;41.50;;;;;;6088260;28;83301;-67
2022/12/28 04:22:52;;;;;;;3.25;2.05;;;23.10;41.10;;;;;;6093402;28;82700;-67
2022/12/28 04:25:53;;;;;;;4.00;2.22;;;23.10;40.70;;;;;;6079934;28;80287;-65
2022/12/28 04:28:53;;;;;;;2.70;1.83;;;23.10;40.20;;;;;;6098035;28;83298;-65
2022/12/28 04:32:19;;;;;;;4.13;2.00;;;23.20;40.00;;;;;;6104819;28;83255;-65
2022/12/28 04:35:20;;;;;;;3.40;2.08;;;23.20;40.00;;;;;;6109400;28;83587;-63
2022/12/28 04:38:23;;;;;;;2.53;1.52;;;23.20;39.80;;;;;;6080458;28;83515;-64
2022/12/28 04:41:24;;;;;;;2.55;1.88;;;23.30;40.20;;;;;;6075585;28;80815;-65
2022/12/28 04:44:24;;;;;;;3.33;1.80;;;23.30;39.80;;;;;;6083080;28;80641;-65
2022/12/28 04:47:25;;;;;;;3.50;1.98;;;23.30;39.50;;;;;;6071239;28;80409;-65
2022/12/28 04:50:25;;;;;;;2.25;1.45;;;23.30;39.40;;;;;;6065801;28;80604;-63
2022/12/28 04:53:26;;;;;;;2.38;1.67;;;23.40;39.40;;;;;;6071459;28;81519;-63
2022/12/28 04:56:26;;;;;;;3.25;1.65;;;23.40;39.40;;;;;;6070236;28;80407;-64
2022/12/28 04:59:27;;;;;;;3.25;1.90;;;23.40;39.40;;;;;;6063866;28;80498;-63
2022/12/28 05:02:27;;;;;;;3.30;1.60;;;23.50;39.40;;;;;;6063660;28;81118;-66
2022/12/28 05:05:28;;;;;;;3.60;1.60;;;23.50;39.30;;;;;;6063460;28;80572;-67
2022/12/28 05:08:28;;;;;;;2.20;1.40;;;23.50;39.20;;;;;;6064369;28;81306;-66
2022/12/28 05:11:30;;;;;;;2.70;1.48;;;23.50;39.10;;;;;;6071062;28;83108;-66
2022/12/28 05:14:31;;;;;;;1.80;1.48;;;23.50;39.00;;;;;;6068529;28;80379;-65
2022/12/28 05:17:31;;;;;;;2.30;1.70;;;23.60;38.90;;;;;;6074901;28;80817;-65
2022/12/28 05:20:32;;;;;;;3.47;1.70;;;23.60;39.00;;;;;;6064417;28;80699;-65
2022/12/28 05:23:32;;;;;;;3.63;1.63;;;23.60;39.00;;;;;;6056175;28;81734;-62
2022/12/28 05:26:34;;;;;;;2.13;1.40;;;23.60;38.90;;;;;;6054056;28;81091;-65
2022/12/28 05:29:35;;;;;;;3.08;1.75;;;23.60;38.70;;;;;;6055211;28;82177;-62
2022/12/28 05:32:35;;;;;;;2.70;1.65;;;23.60;38.50;;;;;;6072453;28;80624;-61
2022/12/28 05:35:36;;;;;;;3.92;1.80;;;23.60;38.40;;;;;;6070432;28;81787;-59
2022/12/28 05:38:36;;;;;;;3.03;1.45;;;23.60;38.50;;;;;;6070647;28;80873;-58
2022/12/28 05:41:37;;;;;;;6.40;1.63;;;23.70;38.60;;;;;;6065676;28;80207;-58
2022/12/28 05:44:37;;;;;;;5.28;1.60;;;23.70;38.80;;;;;;6068375;28;80915;-62
2022/12/28 05:47:38;;;;;;;3.25;1.98;;;23.70;39.30;;;;;;6068964;28;81004;-61
2022/12/28 05:50:39;;;;;;;3.47;1.88;;;23.70;39.60;;;;;;6075027;28;81031;-60
2022/12/28 05:53:40;;;;;;;6.25;2.05;;;23.70;38.80;;;;;;6067349;28;81251;-59
2022/12/28 05:56:40;;;;;;;5.93;2.00;;;23.70;39.20;;;;;;6064973;28;80811;-60
2022/12/28 05:59:41;;;;;;;4.70;2.00;;;23.60;39.20;;;;;;6074719;28;81421;-59
2022/12/28 06:02:42;;;;;;;2.15;1.70;;;23.60;38.90;;;;;;6072608;28;81230;-58
2022/12/28 06:05:42;;;;;;;5.07;2.08;;;23.60;39.20;;;;;;6070210;28;81927;-59
2022/12/28 06:08:43;;;;;;;4.32;2.25;;;23.60;39.10;;;;;;6058537;28;85771;-58
2022/12/28 06:11:44;;;;;;;2.70;1.90;;;23.60;39.30;;;;;;6066814;28;81627;-59
2022/12/28 06:14:45;;;;;;;2.17;1.70;;;23.60;39.70;;;;;;6064783;28;81074;-62
2022/12/28 06:17:45;;;;;;;4.60;1.90;;;23.60;39.70;;;;;;6061951;28;81458;-59
2022/12/28 06:20:46;;;;;;;4.97;2.50;;;23.60;40.10;;;;;;6062547;28;81729;-59
2022/12/28 06:23:46;;;;;;;4.15;2.13;;;23.50;40.10;;;;;;6064047;28;80483;-58
2022/12/28 06:26:47;;;;;;;5.45;2.55;;;23.50;39.80;;;;;;6059840;28;80294;-59
2022/12/28 06:29:47;;;;;;;3.63;2.38;;;23.50;39.60;;;;;;6061515;28;85285;-59
2022/12/28 06:32:48;;;;;;;5.22;2.50;;;23.50;39.50;;;;;;6060215;28;81450;-61
2022/12/28 06:35:48;;;;;;;5.18;3.00;;;23.50;39.30;;;;;;6056298;28;85007;-62
2022/12/28 06:38:49;;;;;;;6.00;2.83;;;23.40;39.20;;;;;;6080820;28;80673;-62
2022/12/28 06:41:50;;;;;;;5.63;2.53;;;23.40;39.80;;;;;;6077354;28;82296;-64
2022/12/28 06:44:50;;;;;;;4.90;2.65;;;23.40;40.20;;;;;;6064600;28;80966;-62
2022/12/28 06:47:51;;;;;;;6.18;2.80;;;23.40;40.40;;;;;;5999131;28;82122;-63
2022/12/28 06:50:51;;;;;;;3.80;2.53;;;23.40;40.30;;;;;;5948504;28;82581;-64
2022/12/28 06:53:52;;;;;;;4.75;2.70;;;23.30;40.20;;;;;;5874289;28;83232;-64
2022/12/28 06:56:52;;;;;;;4.88;2.67;;;23.40;40.90;;;;;;6032818;28;81327;-62
2022/12/28 06:59:53;;;;;;;4.82;2.63;;;23.40;41.70;;;;;;6048855;28;82833;-60
2022/12/28 07:02:53;;;;;;;3.83;2.45;;;23.30;42.20;;;;;;6048595;28;80954;-61
2022/12/28 07:05:54;;;;;;;6.00;2.47;;;23.30;42.60;;;;;;6051810;28;82775;-61
2022/12/28 07:08:54;;;;;;;3.38;2.50;;;23.40;42.90;;;;;;6062343;28;81052;-61
2022/12/28 07:11:55;;;;;;;7.45;2.67;;;23.40;42.90;;;;;;6077713;28;82043;-60
2022/12/28 07:14:55;;;;;;;6.60;2.72;;;23.40;43.00;;;;;;6062200;28;81028;-65
2022/12/28 07:17:56;;;;;;;5.63;2.42;;;23.40;43.90;;;;;;6068304;28;81378;-62
2022/12/28 07:20:56;;;;;;;8.93;2.53;;;23.40;44.20;;;;;;6059576;28;80828;-61
2022/12/28 07:23:57;;;;;;;6.30;3.67;;;23.50;44.20;;;;;;6025914;28;85112;-67
2022/12/28 07:26:57;;;;;;;8.80;4.47;;;23.50;44.20;;;;;;6064262;28;82115;-65
2022/12/28 07:29:58;;;;;;;8.73;4.75;;;23.40;44.20;;;;;;6073823;28;80544;-74
2022/12/28 07:32:58;;;;;;;9.63;4.38;;;23.40;44.60;;;;;;6072625;28;82089;-74
2022/12/28 07:35:59;;;;;;;7.95;4.40;;;23.50;44.70;;;;;;6084365;28;80807;-71
2022/12/28 07:38:59;;;;;;;8.05;4.30;;;23.40;44.90;;;;;;6069983;28;80562;-70
2022/12/28 07:42:05;;;;;;;7.10;4.03;;;23.40;45.00;;;;;;6065332;28;81098;-70
2022/12/28 07:45:09;;;;;;;8.40;3.85;;;23.40;45.10;;;;;;6073960;28;84122;-72
2022/12/28 07:48:10;;;;;;;6.07;3.63;;;23.50;45.10;;;;;;6073850;28;84828;-72
2022/12/28 07:51:10;;;;;;;6.78;3.67;;;23.50;45.00;;;;;;6064247;28;80905;-69
2022/12/28 07:54:11;;;;;;;7.05;4.07;;;23.50;44.70;;;;;;6085498;28;85048;-70
2022/12/28 07:57:11;;;;;;;6.70;3.90;;;23.50;44.80;;;;;;6050091;28;81612;-69
2022/12/28 08:00:12;;;;;;;5.53;3.55;;;23.60;44.50;;;;;;6046135;28;82007;-72
2022/12/28 08:03:15;;;;;;;6.68;3.47;;;23.60;44.50;;;;;;6040363;28;80653;-63
2022/12/28 08:06:18;;;;;;;7.50;3.40;;;23.60;44.90;;;;;;6059124;28;80604;-67
2022/12/28 08:09:18;;;;;;;6.07;3.33;;;23.60;44.80;;;;;;6058332;28;82296;-68
2022/12/28 08:12:20;;;;;;;6.32;3.25;;;23.60;44.90;;;;;;6054435;28;82007;-66
2022/12/28 08:15:20;;;;;;;8.25;3.25;;;23.60;45.30;;;;;;6044615;28;82616;-67
2022/12/28 08:18:21;;;;;;;6.00;3.60;;;23.60;45.30;;;;;;6053215;28;84942;-69
2022/12/28 08:21:21;;;;;;;5.05;2.90;;;23.60;45.60;;;;;;6060501;28;81448;-74
2022/12/28 08:24:22;;;;;;;6.07;3.15;;;23.60;45.60;;;;;;6053789;28;80973;-68
2022/12/28 08:27:23;;;;;;;6.05;3.10;;;23.60;45.90;;;;;;6063059;28;80514;-58
2022/12/28 08:30:23;;;;;;;4.82;3.15;;;23.60;45.50;;;;;;6063490;28;86218;-59
2022/12/28 08:33:24;;;;;;;8.90;3.67;;;23.60;45.90;;;;;;6071580;28;81664;-64
2022/12/28 08:36:24;;;;;;;4.43;2.75;;;23.50;45.90;;;;;;6059319;28;80713;-69
2022/12/28 08:39:25;;;;;;;9.45;3.67;;;23.50;46.00;;;;;;6068326;28;86373;-69
2022/12/28 08:42:25;;;;;;;6.65;3.03;;;23.50;46.30;;;;;;6073538;28;80974;-63
2022/12/28 08:45:26;;;;;;;4.95;2.75;;;23.50;46.40;;;;;;6062151;28;80508;-61
2022/12/28 08:48:26;;;;;;;4.75;3.10;;;23.50;46.60;;;;;;6077776;28;81567;-63
2022/12/28 08:51:27;;;;;;;7.05;3.15;;;23.50;46.60;;;;;;6074631;28;81333;-63
2022/12/28 08:54:27;;;;;;;8.27;3.45;;;23.60;47.00;;;;;;6063455;28;80506;-63
2022/12/28 08:57:28;;;;;;;5.88;3.80;;;23.60;47.10;;;;;;6068714;28;80677;-63
2022/12/28 09:00:28;;;;;;;9.43;3.75;;;23.60;47.70;;;;;;6070811;28;81315;-59
2022/12/28 09:03:29;;;;;;;8.82;3.58;;;23.60;47.30;;;;;;6068525;28;80711;-59
2022/12/28 09:06:31;;;;;;;8.55;3.65;;;23.70;47.10;;;;;;6067056;28;80345;-60
2022/12/28 09:09:33;;;;;;;7.82;3.67;;;23.70;47.40;;;;;;6068364;28;81708;-59
2022/12/28 09:12:33;;;;;;;24.77;6.43;;;23.70;47.50;;;;;;6071633;28;80206;-60
2022/12/28 09:15:34;;;;;;;32.03;7.60;;;23.70;48.00;;;;;;6078570;28;80900;-59
2022/12/28 09:18:34;;;;;;;37.63;8.00;;;23.70;48.00;;;;;;6061439;28;81160;-59
2022/12/28 09:21:35;;;;;;;40.20;9.27;;;23.70;48.60;;;;;;6103547;28;80631;-59
2022/12/28 09:24:36;;;;;;;26.65;8.18;;;23.70;49.00;;;;;;6081709;28;81385;-59
2022/12/28 09:27:36;;;;;;;27.42;7.70;;;23.80;49.90;;;;;;6074153;28;80744;-59
2022/12/28 09:30:37;;;;;;;34.70;8.93;;;23.80;50.20;;;;;;6071850;28;80738;-58
2022/12/28 09:36:56;;;;;;;29.70;7.88;;;24.00;50.60;;;;;;6082018;28;80947;-59
2022/12/28 09:39:57;;;;;;;22.52;6.57;;;24.00;50.60;;;;;;6065614;28;80085;-60
2022/12/28 09:42:57;;;;;;;19.02;6.75;;;24.00;50.10;;;;;;6071751;28;82997;-61
2022/12/28 09:45:58;;;;;;;19.50;5.93;;;24.00;50.10;;;;;;6092296;28;81382;-60
2022/12/28 09:48:58;;;;;;;20.38;6.35;;;24.10;51.30;;;;;;6089153;28;80368;-60
2022/12/28 09:51:59;;;;;;;16.73;5.85;;;24.10;49.90;;;;;;6064541;28;80109;-60
2022/12/28 09:54:59;;;;;;;14.57;5.38;;;24.10;50.70;;;;;;6071264;28;85868;-62
2022/12/28 09:58:00;;;;;;;13.07;5.22;;;24.20;50.90;;;;;;6069240;28;82103;-62
2022/12/28 10:01:01;;;;;;;19.55;5.35;;;24.20;50.50;;;;;;6065287;28;85547;-65
2022/12/28 10:04:01;;;;;;;16.00;5.35;;;24.20;50.60;;;;;;6058999;28;80423;-63
2022/12/28 10:07:02;;;;;;;14.23;5.18;;;24.20;50.10;;;;;;6056949;28;81808;-63
2022/12/28 10:10:03;;;;;;;11.93;5.10;;;24.20;49.40;;;;;;6061492;28;80772;-67
2022/12/28 10:13:04;;;;;;;11.18;4.38;;;24.10;50.10;;;;;;6069810;28;81720;-60
2022/12/28 10:16:04;;;;;;;15.18;4.82;;;24.10;49.50;;;;;;6059935;28;81514;-60
2022/12/28 10:19:05;;;;;;;9.70;4.15;;;24.10;48.30;;;;;;6045029;28;80800;-61
2022/12/28 10:22:05;;;;;;;9.45;3.70;;;24.10;45.90;;;;;;6061064;28;85145;-63
2022/12/28 10:25:06;;;;;;;6.18;3.67;;;24.10;46.10;;;;;;6052733;28;80904;-61
2022/12/28 10:28:07;;;;;;;7.05;3.40;;;24.00;45.60;;;;;;6057747;28;81291;-61
2022/12/28 10:31:07;;;;;;;9.63;3.92;;;23.90;44.80;;;;;;6048868;28;85446;-68
2022/12/28 10:34:08;;;;;;;7.05;3.85;;;23.80;43.30;;;;;;6064994;28;87847;-74
2022/12/28 10:37:08;;;;;;;7.57;3.83;;;23.80;42.60;;;;;;6067391;28;85314;-78
2022/12/28 10:40:09;;;;;;;6.07;3.72;;;23.80;43.20;;;;;;6062302;28;80737;-71
2022/12/28 10:43:09;;;;;;;10.07;4.53;;;23.80;43.60;;;;;;6083772;28;80949;-65
2022/12/28 10:46:10;;;;;;;9.88;4.07;;;23.70;44.40;;;;;;6101470;28;81377;-75
2022/12/28 10:49:10;;;;;;;9.57;3.50;;;23.70;44.70;;;;;;6079182;28;82585;-65
2022/12/28 10:52:11;;;;;;;14.45;3.92;;;23.70;45.20;;;;;;6068169;28;82294;-62
2022/12/28 10:55:11;;;;;;;13.32;4.28;;;23.70;45.60;;;;;;6085180;28;82227;-60
2022/12/28 10:58:12;;;;;;;12.13;4.22;;;23.70;45.90;;;;;;6098747;28;80363;-66
2022/12/28 11:01:12;;;;;;;10.55;4.53;;;23.70;46.50;;;;;;6094664;28;81663;-66
2022/12/28 11:04:13;;;;;;;9.02;3.45;;;23.70;46.60;;;;;;6085874;28;80811;-67
2022/12/28 11:07:13;;;;;;;7.05;3.42;;;23.70;46.80;;;;;;6095109;28;82526;-69
2022/12/28 11:10:14;;;;;;;10.93;3.47;;;23.60;46.90;;;;;;6099260;28;80815;-65
2022/12/28 11:13:14;;;;;;;14.02;4.13;;;23.60;47.20;;;;;;6071468;28;85351;-66
2022/12/28 11:16:15;;;;;;;7.18;3.97;;;23.60;47.20;;;;;;6095020;28;86017;-66
2022/12/28 11:19:16;;;;;;;9.38;3.83;;;23.60;47.30;;;;;;6091781;28;80657;-68
2022/12/28 11:22:16;;;;;;;10.50;4.28;;;23.60;47.80;;;;;;6087993;28;83346;-59
2022/12/28 11:25:17;;;;;;;10.27;3.72;;;23.60;47.30;;;;;;6090624;28;80900;-59
2022/12/28 11:28:17;;;;;;;6.90;3.50;;;23.60;47.30;;;;;;6092002;28;86873;-71
2022/12/28 11:31:18;;;;;;;7.05;3.72;;;23.60;47.20;;;;;;6086855;28;85627;-68
2022/12/28 11:34:18;;;;;;;6.03;3.40;;;23.60;47.40;;;;;;6091248;28;80879;-68
2022/12/28 11:37:19;;;;;;;9.50;3.83;;;23.60;47.10;;;;;;6084489;28;82439;-66
2022/12/28 11:40:19;;;;;;;10.18;3.53;;;23.60;46.80;;;;;;6086419;28;81276;-73
2022/12/28 11:43:20;;;;;;;7.28;3.35;;;23.60;46.60;;;;;;6081944;28;81070;-73
2022/12/28 11:46:20;;;;;;;6.63;3.50;;;23.60;47.00;;;;;;6084378;28;83195;-66
2022/12/28 11:49:21;;;;;;;10.48;4.07;;;23.60;46.30;;;;;;6079958;28;81307;-56
2022/12/28 11:52:25;;;;;;;5.70;3.10;;;23.60;46.20;;;;;;6097181;28;81125;-65
2022/12/28 11:55:26;;;;;;;7.25;3.92;;;23.60;46.20;;;;;;6091683;28;86636;-65
2022/12/28 11:58:27;;;;;;;7.00;3.85;;;23.60;46.10;;;;;;6076254;28;81696;-64
2022/12/28 12:01:39;;;;;;;7.65;4.00;;;23.60;46.00;;;;;;6057581;28;82569;-64
2022/12/28 12:04:40;;;;;;;8.05;3.88;;;23.60;46.00;;;;;;6054835;28;80729;-59
2022/12/28 12:07:41;;;;;;;7.00;4.10;;;23.60;45.80;;;;;;6062903;28;83775;-60
2022/12/28 12:10:41;;;;;;;9.35;4.63;;;23.60;45.70;;;;;;6062090;28;83522;-62
2022/12/28 12:13:42;;;;;;;8.68;4.53;;;23.50;46.20;;;;;;6068709;28;81352;-62
2022/12/28 12:16:42;;;;;;;8.60;4.38;;;23.60;46.40;;;;;;6060855;28;81037;-59
2022/12/28 12:19:43;;;;;;;8.35;4.65;;;23.60;46.10;;;;;;6057017;28;81219;-62
2022/12/28 12:22:43;;;;;;;8.68;4.32;;;23.60;46.60;;;;;;6049337;28;82452;-78
2022/12/28 12:25:44;;;;;;;5.90;3.95;;;23.60;46.30;;;;;;6064795;28;82463;-73
2022/12/28 12:28:44;;;;;;;9.40;4.38;;;23.60;45.70;;;;;;6051413;28;85183;-76
2022/12/28 12:31:46;;;;;;;8.98;4.63;;;23.70;45.80;;;;;;6067964;28;85747;-76
2022/12/28 12:34:46;;;;;;;11.52;4.40;;;23.90;45.00;;;;;;6071590;28;80956;-74
2022/12/28 12:37:47;;;;;;;11.40;4.00;;;24.20;44.60;;;;;;6054358;28;80603;-70
2022/12/28 12:40:47;;;;;;;8.60;4.63;;;24.50;44.70;;;;;;6052604;28;81353;-72
2022/12/28 12:43:48;;;;;;;7.15;4.03;;;24.70;44.80;;;;;;6052186;28;83213;-70
2022/12/28 12:46:48;;;;;;;9.35;4.28;;;24.90;44.20;;;;;;6055381;28;81830;-72
2022/12/28 12:49:49;;;;;;;9.32;4.53;;;25.10;43.60;;;;;;6063778;28;80510;-72
2022/12/28 12:52:49;;;;;;;5.32;3.60;;;25.20;43.40;;;;;;6058996;28;85903;-72
2022/12/28 12:55:50;;;;;;;8.52;4.35;;;25.30;43.00;;;;;;6059724;28;82073;-72
2022/12/28 12:58:50;;;;;;;7.93;3.95;;;25.50;42.80;;;;;;6072296;28;81435;-75
2022/12/28 13:01:51;;;;;;;6.43;4.07;;;25.60;42.60;;;;;;6071514;28;87959;-72
2022/12/28 13:04:52;;;;;;;6.25;3.85;;;25.70;42.30;;;;;;6067097;28;80828;-72
2022/12/28 13:07:54;;;;;;;8.07;4.10;;;25.80;42.10;;;;;;6065907;28;80518;-74
2022/12/28 13:10:55;;;;;;;5.38;3.88;;;25.90;41.90;;;;;;6063572;28;81005;-69
2022/12/28 13:13:55;;;;;;;6.75;3.85;;;25.90;41.90;;;;;;6063382;28;80505;-71
2022/12/28 13:16:56;;;;;;;5.43;3.53;;;26.00;41.70;;;;;;6066768;28;81712;-61
2022/12/28 13:19:56;;;;;;;6.22;3.80;;;26.00;41.60;;;;;;6063568;28;82645;-61
2022/12/28 13:22:57;;;;;;;5.65;3.60;;;26.00;41.40;;;;;;6066684;28;80415;-60
2022/12/28 13:25:57;;;;;;;7.20;3.28;;;25.80;42.10;;;;;;6061651;28;80803;-61
2022/12/28 13:28:58;;;;;;;5.85;3.65;;;25.70;41.40;;;;;;6067818;28;80925;-63
2022/12/28 13:31:58;;;;;;;7.95;3.30;;;25.50;41.80;;;;;;6057482;28;82436;-61
2022/12/28 13:34:59;;;;;;;10.65;3.90;;;25.40;41.60;;;;;;6055464;28;81787;-61
2022/12/28 13:38:01;;;;;;;9.50;4.50;;;25.20;41.90;;;;;;6053389;28;81111;-61
2022/12/28 13:41:02;;;;;;;5.57;4.20;;;25.10;42.50;;;;;;6057065;28;81459;-61
2022/12/28 13:44:02;;;;;;;12.00;4.72;;;24.90;42.60;;;;;;6049862;28;83118;-61
2022/12/28 13:47:03;;;;;;;10.05;4.65;;;24.80;43.50;;;;;;6051872;28;83062;-60
2022/12/28 13:50:03;;;;;;;12.15;4.78;;;24.80;43.50;;;;;;6050741;28;82335;-60
2022/12/28 13:53:04;;;;;;;8.80;4.50;;;24.70;43.80;;;;;;6040391;28;84005;-67
2022/12/28 13:56:04;;;;;;;7.40;4.32;;;24.60;43.70;;;;;;6062873;28;81480;-68
2022/12/28 13:59:05;;;;;;;6.00;4.03;;;24.50;43.60;;;;;;6082215;28;81150;-71
2022/12/28 14:02:06;;;;;;;9.82;5.00;;;24.50;44.10;;;;;;6095702;28;80971;-65
2022/12/28 14:05:06;;;;;;;8.43;4.00;;;24.50;43.90;;;;;;6099607;28;80835;-69
2022/12/28 14:08:07;;;;;;;11.77;3.90;;;24.50;44.30;;;;;;6100716;28;81120;-75
2022/12/28 14:11:07;;;;;;;9.00;3.78;;;24.50;44.30;;;;;;6102071;28;80686;-73
2022/12/28 14:14:08;;;;;;;8.85;3.80;;;24.60;44.20;;;;;;6101834;28;80175;-68
2022/12/28 14:17:08;;;;;;;6.85;3.53;;;24.70;44.50;;;;;;6100786;28;81416;-75
2022/12/28 14:20:09;;;;;;;10.40;3.28;;;24.70;44.20;;;;;;6086954;28;80114;-74
2022/12/28 14:23:09;;;;;;;9.23;3.40;;;24.60;44.20;;;;;;6094204;28;80578;-71
2022/12/28 14:26:10;;;;;;;7.22;3.50;;;24.60;44.50;;;;;;6104038;28;80966;-74
2022/12/28 14:29:11;;;;;;;8.10;3.10;;;24.50;44.80;;;;;;6100320;28;81058;-74
2022/12/28 14:32:12;;;;;;;5.20;2.90;;;24.40;45.40;;;;;;6090081;28;82608;-57
2022/12/28 14:35:12;;;;;;;10.32;3.15;;;24.30;45.80;;;;;;6107394;28;86994;-57
2022/12/28 14:38:13;;;;;;;11.98;3.38;;;24.30;46.00;;;;;;6069456;28;81684;-59
2022/12/28 14:41:13;;;;;;;5.88;3.20;;;24.20;46.40;;;;;;6080893;28;80834;-58
2022/12/28 14:44:14;;;;;;;4.75;2.97;;;24.20;47.20;;;;;;6087328;28;80941;-58
2022/12/28 14:47:14;;;;;;;7.40;2.97;;;24.10;47.40;;;;;;6105290;28;80383;-59
2022/12/28 14:50:16;;;;;;;5.80;3.17;;;24.10;48.30;;;;;;6074806;28;81378;-67
2022/12/28 14:53:16;;;;;;;6.05;3.42;;;24.10;47.60;;;;;;6051471;28;86533;-72
2022/12/28 14:56:17;;;;;;;5.63;3.25;;;24.00;47.50;;;;;;6051424;28;80392;-72
2022/12/28 14:59:17;;;;;;;6.00;3.58;;;24.00;47.90;;;;;;6054745;28;83098;-68
2022/12/28 15:02:18;;;;;;;7.22;3.80;;;23.90;48.10;;;;;;6075522;28;81495;-67
2022/12/28 15:05:18;;;;;;;5.18;2.92;;;23.90;47.70;;;;;;6077559;28;83226;-73
2022/12/28 15:08:19;;;;;;;4.50;3.13;;;23.90;47.90;;;;;;6079714;28;81650;-60
2022/12/28 15:11:19;;;;;;;5.38;3.10;;;23.90;48.00;;;;;;6068308;28;83270;-58
2022/12/28 15:14:20;;;;;;;7.50;3.40;;;23.80;48.10;;;;;;6081450;28;80776;-58
2022/12/28 15:17:21;;;;;;;6.07;3.42;;;23.80;48.10;;;;;;6086016;28;80356;-60
2022/12/28 15:20:21;;;;;;;12.30;3.38;;;23.80;48.40;;;;;;6071539;28;81959;-59
2022/12/28 15:23:22;;;;;;;6.05;3.60;;;23.80;48.10;;;;;;6078674;28;82859;-59
2022/12/28 15:26:23;;;;;;;5.75;3.60;;;23.80;48.90;;;;;;6076874;28;81894;-61
2022/12/28 15:29:23;;;;;;;5.90;3.38;;;23.80;48.80;;;;;;6078238;28;82819;-61
2022/12/28 15:32:24;;;;;;;10.55;3.58;;;23.80;48.80;;;;;;6082039;28;80593;-61
2022/12/28 15:35:24;;;;;;;7.18;3.85;;;23.80;49.00;;;;;;6090836;28;83721;-59
2022/12/28 15:38:25;;;;;;;8.52;3.80;;;23.80;49.30;;;;;;6095757;28;80624;-61
2022/12/28 15:44:47;;;;;;;5.88;3.42;;;23.80;49.70;;;;;;6065555;28;81626;-70
2022/12/28 15:47:48;;;;;;;6.10;4.05;;;23.80;49.80;;;;;;6067092;28;81431;-70
2022/12/28 15:50:48;;;;;;;7.85;3.92;;;23.80;49.90;;;;;;6065517;28;80234;-70
2022/12/28 15:53:49;;;;;;;6.60;3.30;;;23.80;49.70;;;;;;6064218;28;83141;-71
2022/12/28 15:56:49;;;;;;;6.78;4.15;;;23.80;49.20;;;;;;6087356;28;80870;-66
2022/12/28 15:59:50;;;;;;;8.73;4.00;;;23.70;49.20;;;;;;6074204;28;81608;-63
2022/12/28 16:02:50;;;;;;;12.20;3.90;;;23.70;49.80;;;;;;6067044;28;81895;-68
2022/12/28 16:05:51;;;;;;;6.93;4.05;;;23.70;49.40;;;;;;6065837;28;80408;-66
2022/12/28 16:08:51;;;;;;;14.15;4.93;;;23.70;50.00;;;;;;6057606;28;82477;-70
2022/12/28 16:11:52;;;;;;;10.38;4.43;;;23.70;49.90;;;;;;6055548;28;83785;-69